createdAt,value
2017-09-27T00:00:01.676Z,17.77
2017-09-27T00:02:29.066Z,18.13
2017-09-27T00:04:56.482Z,19.83
2017-09-27T00:07:23.874Z,17.47
2017-09-27T00:09:51.279Z,18.57
2017-09-27T00:12:18.679Z,19.90
2017-09-27T00:14:46.074Z,19.50
2017-09-27T00:17:13.482Z,21.50
2017-09-27T00:19:40.878Z,21.97
2017-09-27T00:22:08.277Z,20.80
2017-09-27T00:24:35.676Z,21.20
2017-09-27T00:27:03.083Z,22.60
2017-09-27T00:29:30.479Z,20.50
2017-09-27T00:31:57.887Z,20.77
2017-09-27T00:34:25.278Z,21.17
2017-09-27T00:36:52.684Z,22.30
2017-09-27T00:39:20.074Z,21.73
2017-09-27T00:41:47.467Z,20.50
2017-09-27T00:44:14.871Z,20.90
2017-09-27T00:46:42.278Z,22.60
2017-09-27T00:49:09.690Z,22.63
2017-09-27T00:51:37.086Z,21.80
2017-09-27T00:54:04.486Z,22.90
2017-09-27T00:56:31.886Z,23.97
2017-09-27T00:58:59.282Z,24.23
2017-09-27T01:01:26.687Z,24.23
2017-09-27T01:03:54.083Z,24.70
2017-09-27T01:06:21.499Z,25.17
2017-09-27T01:08:48.894Z,23.00
2017-09-27T01:11:16.291Z,23.57
2017-09-27T01:13:43.695Z,22.27
2017-09-27T01:16:11.098Z,22.00
2017-09-27T01:18:38.509Z,22.53
2017-09-27T01:21:05.906Z,23.80
2017-09-27T01:23:33.310Z,23.60
2017-09-27T01:26:00.700Z,22.57
2017-09-27T01:28:28.114Z,25.27
2017-09-27T01:30:55.508Z,23.70
2017-09-27T01:33:22.898Z,24.40
2017-09-27T01:35:50.299Z,22.30
2017-09-27T01:38:17.694Z,21.53
2017-09-27T01:40:45.098Z,20.67
2017-09-27T01:43:12.497Z,21.50
2017-09-27T01:45:39.910Z,19.90
2017-09-27T01:48:07.307Z,20.27
2017-09-27T01:50:34.702Z,22.37
2017-09-27T01:53:02.111Z,21.77
2017-09-27T01:55:29.506Z,19.47
2017-09-27T01:57:56.907Z,19.20
2017-09-27T02:00:24.310Z,20.10
2017-09-27T02:02:53.514Z,19.07
2017-09-27T02:05:20.918Z,19.23
2017-09-27T02:07:48.314Z,19.77
2017-09-27T02:10:15.720Z,18.27
2017-09-27T02:12:43.118Z,19.40
2017-09-27T02:15:10.524Z,20.77
2017-09-27T02:17:37.931Z,21.00
2017-09-27T02:20:05.331Z,22.50
2017-09-27T02:22:32.737Z,24.53
2017-09-27T02:25:00.126Z,24.20
2017-09-27T02:27:27.537Z,23.13
2017-09-27T02:29:54.931Z,22.00
2017-09-27T02:32:22.330Z,22.77
2017-09-27T02:34:49.729Z,20.97
2017-09-27T02:37:17.139Z,25.23
2017-09-27T02:39:44.534Z,26.00
2017-09-27T02:42:11.931Z,23.17
2017-09-27T02:44:39.347Z,26.77
2017-09-27T02:47:06.739Z,26.33
2017-09-27T02:49:34.143Z,26.57
2017-09-27T02:52:01.544Z,24.10
2017-09-27T02:54:28.959Z,25.37
2017-09-27T02:56:56.354Z,28.83
2017-09-27T02:59:23.753Z,26.10
2017-09-27T03:01:51.157Z,25.20
2017-09-27T03:04:18.554Z,27.60
2017-09-27T03:06:45.954Z,30.00
2017-09-27T03:09:13.356Z,28.30
2017-09-27T03:11:40.782Z,27.43
2017-09-27T03:14:08.179Z,28.27
2017-09-27T03:16:35.574Z,26.97
2017-09-27T03:19:02.983Z,25.90
2017-09-27T03:21:30.379Z,23.60
2017-09-27T03:23:57.783Z,26.57
2017-09-27T03:26:25.179Z,27.00
2017-09-27T03:28:52.583Z,25.07
2017-09-27T03:31:19.988Z,27.27
2017-09-27T03:33:47.371Z,26.00
2017-09-27T03:36:14.782Z,28.70
2017-09-27T03:38:42.174Z,29.90
2017-09-27T03:41:09.594Z,31.73
2017-09-27T03:43:36.986Z,28.10
2017-09-27T03:46:04.386Z,26.00
2017-09-27T03:48:31.790Z,28.70
2017-09-27T03:50:59.192Z,29.53
2017-09-27T03:53:26.595Z,24.57
2017-09-27T03:55:53.991Z,26.30
2017-09-27T03:58:21.413Z,27.93
2017-09-27T04:00:48.797Z,26.87
2017-09-27T04:03:16.190Z,24.47
2017-09-27T04:05:43.607Z,23.20
2017-09-27T04:08:11.003Z,23.77
2017-09-27T04:10:38.740Z,27.37
2017-09-27T04:13:06.131Z,23.90
2017-09-27T04:15:33.543Z,28.00
2017-09-27T04:18:00.938Z,29.30
2017-09-27T04:20:28.330Z,26.27
2017-09-27T04:22:55.735Z,25.60
2017-09-27T04:25:23.136Z,25.63
2017-09-27T04:27:50.543Z,26.07
2017-09-27T04:30:17.942Z,28.23
2017-09-27T04:32:45.355Z,24.37
2017-09-27T04:35:12.750Z,24.67
2017-09-27T04:37:40.151Z,27.77
2017-09-27T04:40:07.553Z,25.50
2017-09-27T04:42:34.944Z,25.60
2017-09-27T04:45:02.351Z,24.53
2017-09-27T04:47:29.743Z,23.53
2017-09-27T04:49:57.155Z,28.53
2017-09-27T04:52:24.551Z,28.03
2017-09-27T04:54:51.956Z,26.23
2017-09-27T04:57:19.354Z,27.77
2017-09-27T04:59:46.751Z,24.83
2017-09-27T05:02:14.159Z,25.57
2017-09-27T05:04:41.554Z,25.50
2017-09-27T05:07:08.967Z,25.43
2017-09-27T05:09:36.361Z,28.23
2017-09-27T05:12:03.760Z,28.37
2017-09-27T05:14:31.163Z,30.80
2017-09-27T05:16:58.563Z,28.00
2017-09-27T05:19:25.963Z,27.00
2017-09-27T05:21:53.363Z,33.53
2017-09-27T05:24:20.782Z,29.17
2017-09-27T05:26:48.179Z,25.37
2017-09-27T05:29:15.582Z,24.97
2017-09-27T05:31:42.979Z,23.53
2017-09-27T05:34:10.375Z,24.17
2017-09-27T05:36:37.782Z,25.10
2017-09-27T05:39:05.178Z,25.90
2017-09-27T05:41:32.590Z,25.17
2017-09-27T05:43:59.986Z,27.77
2017-09-27T05:46:27.383Z,26.30
2017-09-27T05:48:54.788Z,29.77
2017-09-27T05:51:22.179Z,25.80
2017-09-27T05:53:49.574Z,27.90
2017-09-27T05:56:16.971Z,26.70
2017-09-27T05:58:44.380Z,28.27
2017-09-27T06:01:11.774Z,28.73
2017-09-27T06:03:39.174Z,26.80
2017-09-27T06:06:06.575Z,25.00
2017-09-27T06:08:34.004Z,27.87
2017-09-27T06:11:01.398Z,24.83
2017-09-27T06:13:28.791Z,26.87
2017-09-27T06:15:56.190Z,25.50
2017-09-27T06:18:23.587Z,23.77
2017-09-27T06:20:50.987Z,24.60
2017-09-27T06:23:18.383Z,25.27
2017-09-27T06:25:45.774Z,25.93
2017-09-27T06:28:13.174Z,29.00
2017-09-27T06:30:40.570Z,23.70
2017-09-27T06:33:07.984Z,25.87
2017-09-27T06:35:35.383Z,27.37
2017-09-27T06:38:02.775Z,25.63
2017-09-27T06:40:30.178Z,26.27
2017-09-27T06:42:57.579Z,24.50
2017-09-27T06:45:24.997Z,26.90
2017-09-27T06:47:52.377Z,24.93
2017-09-27T06:50:19.790Z,26.23
2017-09-27T06:52:47.190Z,26.80
2017-09-27T06:55:14.622Z,26.70
2017-09-27T06:57:42.043Z,25.33
2017-09-27T07:00:09.431Z,25.50
2017-09-27T07:02:36.830Z,28.20
2017-09-27T07:05:04.230Z,26.20
2017-09-27T07:07:31.652Z,28.00
2017-09-27T07:09:59.043Z,28.63
2017-09-27T07:12:26.434Z,29.27
2017-09-27T07:14:53.839Z,25.70
2017-09-27T07:17:21.230Z,27.30
2017-09-27T07:19:48.634Z,25.30
2017-09-27T07:22:16.030Z,24.80
2017-09-27T07:24:43.451Z,25.43
2017-09-27T07:27:10.843Z,24.43
2017-09-27T07:29:38.244Z,27.03
2017-09-27T07:32:05.646Z,29.17
2017-09-27T07:34:33.043Z,26.53
2017-09-27T07:37:00.450Z,27.97
2017-09-27T07:39:27.846Z,27.50
2017-09-27T07:41:55.269Z,25.03
2017-09-27T07:44:22.663Z,26.50
2017-09-27T07:46:50.058Z,28.93
2017-09-27T07:49:17.458Z,30.20
2017-09-27T07:51:44.858Z,28.77
2017-09-27T07:54:12.262Z,27.07
2017-09-27T07:56:39.662Z,29.10
2017-09-27T07:59:07.070Z,27.87
2017-09-27T08:01:34.467Z,26.43
2017-09-27T08:04:01.870Z,28.10
2017-09-27T08:06:29.272Z,27.07
2017-09-27T08:08:56.666Z,26.07
2017-09-27T08:11:24.067Z,24.83
2017-09-27T08:13:51.458Z,27.00
2017-09-27T08:16:18.858Z,27.00
2017-09-27T08:18:46.255Z,26.43
2017-09-27T08:21:13.659Z,28.30
2017-09-27T08:23:41.062Z,26.83
2017-09-27T08:26:08.463Z,26.80
2017-09-27T08:28:35.858Z,25.63
2017-09-27T08:31:03.264Z,25.00
2017-09-27T08:33:30.659Z,25.70
2017-09-27T08:35:58.056Z,23.97
2017-09-27T08:38:25.462Z,26.00
2017-09-27T08:40:52.859Z,24.23
2017-09-27T08:43:20.262Z,24.33
2017-09-27T08:45:47.659Z,22.20
2017-09-27T08:48:15.075Z,22.67
2017-09-27T08:50:42.470Z,22.50
2017-09-27T08:53:09.866Z,24.70
2017-09-27T08:55:37.269Z,23.97
2017-09-27T08:58:04.666Z,24.03
2017-09-27T09:00:32.067Z,22.77
2017-09-27T09:02:59.463Z,22.40
2017-09-27T09:05:26.867Z,21.30
2017-09-27T09:07:54.262Z,23.20
2017-09-27T09:10:21.666Z,20.53
2017-09-27T09:12:49.063Z,22.03
2017-09-27T09:15:16.455Z,22.50
2017-09-27T09:17:43.878Z,21.00
2017-09-27T09:20:11.271Z,20.03
2017-09-27T09:22:38.670Z,21.67
2017-09-27T09:25:06.136Z,21.80
2017-09-27T09:27:33.530Z,20.63
2017-09-27T09:30:00.926Z,20.60
2017-09-27T09:32:28.329Z,23.20
2017-09-27T09:34:55.726Z,20.20
2017-09-27T09:37:23.118Z,20.50
2017-09-27T09:39:50.526Z,20.93
2017-09-27T09:42:17.926Z,20.93
2017-09-27T09:44:45.329Z,20.60
2017-09-27T09:47:12.722Z,19.87
2017-09-27T09:49:40.131Z,19.73
2017-09-27T09:52:07.530Z,18.60
2017-09-27T09:54:34.943Z,19.63
2017-09-27T09:57:02.335Z,20.43
2017-09-27T09:59:29.739Z,25.23
2017-09-27T10:01:57.140Z,20.87
2017-09-27T10:04:24.547Z,21.73
2017-09-27T10:06:51.957Z,22.27
2017-09-27T10:09:19.350Z,22.37
2017-09-27T10:11:46.771Z,21.30
2017-09-27T10:14:14.164Z,18.63
2017-09-27T10:16:41.575Z,35.40
2017-09-27T10:19:09.000Z,23.47
2017-09-27T10:21:36.393Z,22.13
2017-09-27T10:24:03.800Z,18.80
2017-09-27T10:26:31.198Z,21.00
2017-09-27T10:28:58.599Z,21.67
2017-09-27T10:31:25.992Z,19.70
2017-09-27T10:33:53.398Z,20.03
2017-09-27T10:36:20.794Z,19.47
2017-09-27T10:38:48.195Z,19.77
2017-09-27T10:41:15.597Z,18.80
2017-09-27T10:43:42.995Z,21.63
2017-09-27T10:46:10.394Z,19.00
2017-09-27T10:48:37.799Z,19.67
2017-09-27T10:51:05.199Z,19.47
2017-09-27T10:53:32.596Z,20.40
2017-09-27T10:56:00.014Z,20.13
2017-09-27T10:58:27.414Z,22.83
2017-09-27T11:00:54.813Z,21.97
2017-09-27T11:03:22.226Z,21.27
2017-09-27T11:05:49.628Z,21.13
2017-09-27T11:08:17.023Z,19.97
2017-09-27T11:10:44.423Z,21.00
2017-09-27T11:13:11.823Z,20.40
2017-09-27T11:15:39.215Z,21.90
2017-09-27T11:18:06.619Z,19.23
2017-09-27T11:20:34.029Z,20.10
2017-09-27T11:23:01.430Z,20.77
2017-09-27T11:25:28.834Z,20.80
2017-09-27T11:27:56.224Z,19.13
2017-09-27T11:30:23.637Z,19.10
2017-09-27T11:32:51.025Z,20.43
2017-09-27T11:35:18.427Z,18.73
2017-09-27T11:37:45.827Z,20.50
2017-09-27T11:40:13.224Z,19.80
2017-09-27T11:42:40.624Z,20.57
2017-09-27T11:45:08.019Z,21.30
2017-09-27T11:47:35.418Z,20.80
2017-09-27T11:50:02.816Z,22.20
2017-09-27T11:52:30.235Z,22.80
2017-09-27T11:54:57.630Z,19.70
2017-09-27T11:57:25.027Z,23.97
2017-09-27T11:59:52.434Z,19.60
2017-09-27T12:02:19.831Z,23.43
2017-09-27T12:04:47.232Z,24.03
2017-09-27T12:07:14.627Z,19.13
2017-09-27T12:09:42.031Z,20.63
2017-09-27T12:12:09.438Z,22.27
2017-09-27T12:14:36.859Z,22.30
2017-09-27T12:17:04.258Z,20.53
2017-09-27T12:19:31.651Z,22.03
2017-09-27T12:21:59.057Z,21.33
2017-09-27T12:24:26.439Z,21.03
2017-09-27T12:26:53.849Z,22.90
2017-09-27T12:29:21.245Z,21.47
2017-09-27T12:31:48.646Z,21.17
2017-09-27T12:34:16.058Z,18.90
2017-09-27T12:36:43.451Z,19.50
2017-09-27T12:39:10.842Z,21.57
2017-09-27T12:41:38.234Z,18.30
2017-09-27T12:44:05.638Z,18.73
2017-09-27T12:46:33.034Z,19.87
2017-09-27T12:49:00.443Z,19.67
2017-09-27T12:51:27.836Z,19.00
2017-09-27T12:53:55.239Z,18.57
2017-09-27T12:56:22.634Z,20.30
2017-09-27T12:58:50.047Z,19.97
2017-09-27T13:01:17.467Z,19.83
2017-09-27T13:03:44.863Z,18.67
2017-09-27T13:06:12.267Z,19.23
2017-09-27T13:08:39.682Z,18.00
2017-09-27T13:11:07.078Z,18.77
2017-09-27T13:13:34.476Z,18.03
2017-09-27T13:16:01.883Z,18.93
2017-09-27T13:18:29.289Z,18.30
2017-09-27T13:20:56.698Z,20.83
2017-09-27T13:23:24.098Z,17.67
2017-09-27T13:25:51.491Z,17.60
2017-09-27T13:28:18.891Z,17.77
2017-09-27T13:30:46.284Z,17.00
2017-09-27T13:33:13.731Z,15.97
2017-09-27T13:35:41.134Z,16.53
2017-09-27T13:38:08.554Z,17.47
2017-09-27T13:40:35.950Z,17.90
2017-09-27T13:43:03.348Z,17.80
2017-09-27T13:45:30.742Z,17.57
2017-09-27T13:47:58.139Z,17.57
2017-09-27T13:50:25.543Z,17.43
2017-09-27T13:52:52.938Z,16.67
2017-09-27T13:55:20.347Z,17.40
2017-09-27T13:57:47.746Z,17.30
2017-09-27T14:00:15.146Z,16.50
2017-09-27T14:02:42.545Z,16.93
2017-09-27T14:05:09.939Z,17.47
2017-09-27T14:07:37.338Z,16.10
2017-09-27T14:10:04.736Z,16.47
2017-09-27T14:12:32.139Z,17.00
2017-09-27T14:14:59.531Z,16.57
2017-09-27T14:17:26.926Z,16.27
2017-09-27T14:19:54.327Z,17.20
2017-09-27T14:22:21.731Z,16.40
2017-09-27T14:24:49.134Z,15.20
2017-09-27T14:27:16.536Z,16.20
2017-09-27T14:29:43.946Z,15.33
2017-09-27T14:32:11.342Z,16.07
2017-09-27T14:34:38.739Z,15.70
2017-09-27T14:37:06.147Z,15.67
2017-09-27T14:39:33.610Z,16.10
2017-09-27T14:42:01.033Z,15.47
2017-09-27T14:44:28.424Z,16.50
2017-09-27T14:46:55.830Z,15.30
2017-09-27T14:49:23.218Z,15.80
2017-09-27T14:51:50.618Z,16.37
2017-09-27T14:54:18.019Z,16.50
2017-09-27T14:56:45.422Z,16.40
2017-09-27T14:59:12.822Z,16.30
2017-09-27T15:01:40.223Z,16.40
2017-09-27T15:04:07.631Z,15.50
2017-09-27T15:06:35.031Z,16.90
2017-09-27T15:09:02.498Z,16.87
2017-09-27T15:11:29.895Z,16.50
2017-09-27T15:13:57.287Z,15.47
2017-09-27T15:16:24.690Z,17.43
2017-09-27T15:18:52.083Z,16.03
2017-09-27T15:21:19.478Z,16.30
2017-09-27T15:23:46.878Z,16.37
2017-09-27T15:26:14.274Z,15.87
2017-09-27T15:28:41.675Z,16.10
2017-09-27T15:31:09.072Z,16.03
2017-09-27T15:33:36.474Z,16.87
2017-09-27T15:36:04.583Z,15.83
2017-09-27T15:38:31.988Z,15.70
2017-09-27T15:40:59.403Z,16.90
2017-09-27T15:43:26.800Z,15.47
2017-09-27T15:45:54.195Z,14.93
2017-09-27T15:48:21.603Z,16.53
2017-09-27T15:50:49.012Z,16.00
2017-09-27T15:53:16.411Z,14.07
2017-09-27T15:55:43.810Z,15.73
2017-09-27T15:58:11.202Z,15.50
2017-09-27T16:00:38.606Z,15.53
2017-09-27T16:03:06.006Z,15.07
2017-09-27T16:05:33.413Z,14.90
2017-09-27T16:08:00.820Z,15.73
2017-09-27T16:10:28.206Z,16.23
2017-09-27T16:12:55.607Z,15.53
2017-09-27T16:15:23.002Z,14.80
2017-09-27T16:17:50.487Z,15.43
2017-09-27T16:20:17.918Z,15.40
2017-09-27T16:22:45.313Z,17.03
2017-09-27T16:25:12.710Z,16.87
2017-09-27T16:27:40.110Z,14.67
2017-09-27T16:30:07.533Z,15.73
2017-09-27T16:32:34.926Z,16.90
2017-09-27T16:35:02.352Z,15.70
2017-09-27T16:37:29.757Z,15.10
2017-09-27T16:39:57.151Z,16.37
2017-09-27T16:42:24.546Z,17.90
2017-09-27T16:44:51.947Z,17.33
2017-09-27T16:47:19.346Z,18.43
2017-09-27T16:49:46.762Z,17.83
2017-09-27T16:52:14.174Z,17.47
2017-09-27T16:54:41.580Z,17.87
2017-09-27T16:57:08.987Z,18.57
2017-09-27T16:59:36.375Z,17.30
2017-09-27T17:02:05.742Z,16.50
2017-09-27T17:04:33.143Z,18.30
2017-09-27T17:07:00.580Z,18.23
2017-09-27T17:09:27.983Z,18.77
2017-09-27T17:11:55.375Z,17.13
2017-09-27T17:14:22.818Z,20.00
2017-09-27T17:16:50.210Z,18.13
2017-09-27T17:19:17.606Z,17.73
2017-09-27T17:21:45.010Z,18.10
2017-09-27T17:24:12.422Z,18.03
2017-09-27T17:26:39.815Z,17.60
2017-09-27T17:29:07.219Z,17.80
2017-09-27T17:31:34.616Z,17.40
2017-09-27T17:34:02.015Z,18.30
2017-09-27T17:36:29.596Z,16.30
2017-09-27T17:38:56.993Z,17.63
2017-09-27T17:41:24.386Z,17.03
2017-09-27T17:43:51.779Z,18.07
2017-09-27T17:46:19.182Z,18.23
2017-09-27T17:48:46.583Z,18.13
2017-09-27T17:51:13.978Z,18.10
2017-09-27T17:53:41.442Z,18.73
2017-09-27T17:56:08.847Z,18.60
2017-09-27T17:58:36.263Z,18.40
2017-09-27T18:01:03.684Z,18.23
2017-09-27T18:03:31.146Z,18.10
2017-09-27T18:06:03.898Z,17.63
2017-09-27T18:08:36.942Z,17.00
2017-09-27T18:14:20.766Z,18.30
2017-09-27T18:16:53.859Z,18.33
2017-09-27T18:19:21.283Z,19.00
2017-09-27T18:21:48.674Z,19.00
2017-09-27T18:24:16.148Z,18.97
2017-09-27T18:26:43.556Z,18.37
2017-09-27T18:29:11.055Z,17.00
2017-09-27T18:31:38.469Z,18.20
2017-09-27T18:34:05.881Z,18.70
2017-09-27T18:36:33.291Z,18.57
2017-09-27T18:39:00.700Z,17.40
2017-09-27T18:41:28.098Z,18.67
2017-09-27T18:43:55.614Z,19.40
2017-09-27T18:46:23.041Z,19.30
2017-09-27T18:48:50.431Z,19.07
2017-09-27T18:51:17.862Z,19.00
2017-09-27T18:53:45.246Z,19.87
2017-09-27T18:56:12.664Z,20.23
2017-09-27T18:58:40.069Z,21.10
2017-09-27T19:01:07.462Z,21.13
2017-09-27T19:03:34.858Z,20.90
2017-09-27T19:06:02.259Z,20.73
2017-09-27T19:08:29.670Z,19.20
2017-09-27T19:10:57.070Z,21.97
2017-09-27T19:13:24.463Z,19.27
2017-09-27T19:15:51.862Z,20.70
2017-09-27T19:18:19.266Z,21.17
2017-09-27T19:20:52.663Z,21.07
2017-09-27T19:23:20.058Z,20.27
2017-09-27T19:25:47.463Z,21.20
2017-09-27T19:28:14.864Z,20.47
2017-09-27T19:30:42.274Z,20.60
2017-09-27T19:33:09.667Z,21.03
2017-09-27T19:35:37.063Z,20.13
2017-09-27T19:38:04.466Z,20.63
2017-09-27T19:40:31.864Z,19.63
2017-09-27T19:42:59.270Z,20.93
2017-09-27T19:45:26.666Z,21.13
2017-09-27T19:47:54.078Z,21.73
2017-09-27T19:50:21.480Z,21.27
2017-09-27T19:52:48.879Z,22.67
2017-09-27T19:55:16.283Z,21.63
2017-09-27T19:57:43.679Z,20.30
2017-09-27T20:00:11.093Z,20.23
2017-09-27T20:02:38.480Z,21.23
2017-09-27T20:05:05.891Z,19.90
2017-09-27T20:07:33.294Z,20.80
2017-09-27T20:10:00.682Z,21.13
2017-09-27T20:12:28.083Z,22.20
2017-09-27T20:14:55.487Z,20.50
2017-09-27T20:17:22.890Z,20.37
2017-09-27T20:19:50.281Z,20.90
2017-09-27T20:22:17.690Z,20.07
2017-09-27T20:24:45.086Z,21.13
2017-09-27T20:27:12.482Z,22.37
2017-09-27T20:29:39.895Z,20.43
2017-09-27T20:32:07.291Z,21.57
2017-09-27T20:34:34.698Z,20.90
2017-09-27T20:37:02.091Z,22.67
2017-09-27T20:39:29.502Z,21.60
2017-09-27T20:41:56.903Z,22.40
2017-09-27T20:44:24.304Z,21.27
2017-09-27T20:46:51.711Z,22.90
2017-09-27T20:49:19.118Z,21.10
2017-09-27T20:51:46.518Z,21.80
2017-09-27T20:54:13.914Z,21.80
2017-09-27T20:56:41.323Z,22.10
2017-09-27T20:59:08.726Z,22.00
2017-09-27T21:01:36.127Z,21.60
2017-09-27T21:04:03.523Z,22.90
2017-09-27T21:06:30.930Z,22.20
2017-09-27T21:08:58.336Z,23.43
2017-09-27T21:11:25.723Z,22.83
2017-09-27T21:13:53.143Z,23.83
2017-09-27T21:16:20.543Z,22.87
2017-09-27T21:18:47.935Z,22.57
2017-09-27T21:21:15.338Z,21.70
2017-09-27T21:23:42.740Z,23.30
2017-09-27T21:26:10.147Z,23.90
2017-09-27T21:28:37.546Z,22.90
2017-09-27T21:31:04.957Z,23.77
2017-09-27T21:33:32.362Z,22.07
2017-09-27T21:35:59.762Z,24.53
2017-09-27T21:38:27.175Z,22.60
2017-09-27T21:40:54.570Z,23.20
2017-09-27T21:43:21.970Z,22.90
2017-09-27T21:45:49.368Z,24.40
2017-09-27T21:48:16.781Z,23.60
2017-09-27T21:50:44.174Z,23.67
2017-09-27T21:53:11.574Z,20.90
2017-09-27T21:55:38.979Z,24.20
2017-09-27T21:58:06.374Z,25.10
2017-09-27T22:00:33.783Z,24.27
2017-09-27T22:03:01.187Z,24.90
2017-09-27T22:05:28.595Z,24.17
2017-09-27T22:07:55.989Z,24.10
2017-09-27T22:10:23.383Z,24.40
2017-09-27T22:12:50.796Z,25.47
2017-09-27T22:15:18.191Z,24.47
2017-09-27T22:17:45.591Z,24.20
2017-09-27T22:20:12.983Z,25.50
2017-09-27T22:22:40.398Z,26.00
2017-09-27T22:25:07.790Z,25.33
2017-09-27T22:27:35.186Z,24.20
2017-09-27T22:30:02.586Z,25.10
2017-09-27T22:32:29.987Z,24.50
2017-09-27T22:34:57.383Z,24.20
2017-09-27T22:37:24.775Z,26.13
2017-09-27T22:39:52.182Z,27.57
2017-09-27T22:42:19.579Z,23.93
2017-09-27T22:44:46.975Z,24.67
2017-09-27T22:47:14.375Z,25.30
2017-09-27T22:49:41.765Z,24.53
2017-09-27T22:52:09.178Z,25.23
2017-09-27T22:54:36.582Z,26.33
2017-09-27T22:57:03.978Z,26.40
2017-09-27T22:59:31.375Z,25.77
2017-09-27T23:01:58.771Z,25.20
2017-09-27T23:04:26.182Z,24.43
2017-09-27T23:06:53.578Z,27.57
2017-09-27T23:09:20.975Z,28.00
2017-09-27T23:11:48.378Z,26.33
2017-09-27T23:14:15.778Z,27.47
2017-09-27T23:16:43.178Z,26.33
2017-09-27T23:19:10.586Z,26.27
2017-09-27T23:21:38.278Z,24.93
2017-09-27T23:24:05.673Z,25.63
2017-09-27T23:26:33.077Z,25.40
2017-09-27T23:29:00.474Z,28.70
2017-09-27T23:31:27.870Z,28.80
2017-09-27T23:33:55.278Z,30.97
2017-09-27T23:36:22.673Z,28.47
2017-09-27T23:38:50.079Z,28.27
2017-09-27T23:41:17.478Z,30.87
2017-09-27T23:43:44.907Z,29.47
2017-09-27T23:46:12.312Z,29.80
2017-09-27T23:48:39.711Z,29.80
2017-09-27T23:51:07.113Z,28.37
2017-09-27T23:53:34.506Z,30.67
2017-09-27T23:56:01.914Z,30.80
2017-09-27T23:58:29.311Z,29.73
